createdAt,value
2023-04-11T00:00:46.842Z,8.17
2023-04-11T00:03:53.744Z,8.12
2023-04-11T00:06:59.459Z,8.10
2023-04-11T00:10:05.892Z,8.06
2023-04-11T00:13:13.725Z,8.03
2023-04-11T00:16:20.863Z,8.02
2023-04-11T00:19:28.692Z,7.99
2023-04-11T00:22:35.035Z,7.97
2023-04-11T00:25:43.552Z,7.93
2023-04-11T00:28:49.996Z,7.93
2023-04-11T00:31:57.103Z,7.90
2023-04-11T00:35:02.988Z,7.88
2023-04-11T00:38:08.747Z,7.83
2023-04-11T00:41:15.150Z,7.79
2023-04-11T00:44:21.066Z,7.75
2023-04-11T00:47:27.755Z,7.74
2023-04-11T00:50:34.427Z,7.73
2023-04-11T00:53:42.288Z,7.72
2023-04-11T00:56:48.239Z,7.69
2023-04-11T00:59:55.241Z,7.69
2023-04-11T01:03:03.645Z,7.67
2023-04-11T01:06:10.628Z,7.66
2023-04-11T01:09:16.866Z,7.63
2023-04-11T01:12:23.763Z,7.63
2023-04-11T01:15:29.603Z,7.61
2023-04-11T01:18:35.728Z,7.61
2023-04-11T01:21:43.491Z,7.61
2023-04-11T01:24:49.249Z,7.60
2023-04-11T01:27:55.825Z,7.60
2023-04-11T01:31:01.424Z,7.61
2023-04-11T01:34:07.098Z,7.61
2023-04-11T01:37:14.166Z,7.61
2023-04-11T01:40:22.867Z,7.63
2023-04-11T01:43:28.958Z,7.63
2023-04-11T01:46:35.113Z,7.63
2023-04-11T01:49:41.271Z,7.66
2023-04-11T01:52:47.905Z,7.67
2023-04-11T01:55:54.250Z,7.67
2023-04-11T01:59:01.171Z,7.66
2023-04-11T02:02:07.479Z,7.67
2023-04-11T02:05:14.629Z,7.67
2023-04-11T02:08:20.895Z,7.66
2023-04-11T02:11:27.917Z,7.64
2023-04-11T02:14:36.287Z,7.64
2023-04-11T02:17:43.636Z,7.64
2023-04-11T02:20:52.492Z,7.64
2023-04-11T02:24:00.858Z,7.66
2023-04-11T02:27:07.797Z,7.65
2023-04-11T02:30:14.905Z,7.63
2023-04-11T02:33:21.106Z,7.63
2023-04-11T02:36:27.790Z,7.62
2023-04-11T02:39:34.693Z,7.61
2023-04-11T02:42:40.648Z,7.63
2023-04-11T02:45:49.821Z,7.63
2023-04-11T02:48:57.136Z,7.64
2023-04-11T02:52:04.602Z,7.64
2023-04-11T02:55:10.589Z,7.64
2023-04-11T02:58:15.686Z,7.63
2023-04-11T03:01:23.678Z,7.65
2023-04-11T03:04:30.488Z,7.64
2023-04-11T03:07:40.619Z,7.65
2023-04-11T03:10:48.011Z,7.64
2023-04-11T03:13:57.328Z,7.64
2023-04-11T03:17:03.404Z,7.67
2023-04-11T03:20:11.989Z,7.66
2023-04-11T03:23:20.642Z,7.68
2023-04-11T03:26:27.557Z,7.68
2023-04-11T03:29:36.230Z,7.73
2023-04-11T03:32:44.639Z,7.77
2023-04-11T03:35:51.573Z,7.82
2023-04-11T03:39:00.991Z,7.86
2023-04-11T03:42:08.913Z,7.90
2023-04-11T03:45:14.611Z,7.96
2023-04-11T03:48:21.234Z,8.02
2023-04-11T03:51:29.235Z,8.07
2023-04-11T03:54:36.658Z,8.14
2023-04-11T03:57:42.759Z,8.19
2023-04-11T04:00:49.428Z,8.24
2023-04-11T04:03:57.671Z,8.31
2023-04-11T04:07:06.441Z,8.36
2023-04-11T04:10:15.559Z,8.45
2023-04-11T04:13:23.948Z,8.54
2023-04-11T04:16:44.807Z,8.61
2023-04-11T04:19:52.192Z,8.71
2023-04-11T04:23:00.296Z,8.80
2023-04-11T04:26:08.728Z,8.87
2023-04-11T04:29:17.401Z,8.95
2023-04-11T04:32:30.655Z,9.05
2023-04-11T04:35:41.005Z,9.18
2023-04-11T04:38:48.917Z,9.28
2023-04-11T04:41:56.401Z,9.39
2023-04-11T04:45:05.950Z,9.49
2023-04-11T04:48:12.696Z,9.62
2023-04-11T04:51:21.852Z,9.75
2023-04-11T04:54:28.036Z,9.87
2023-04-11T04:57:33.931Z,10.00
2023-04-11T05:00:40.393Z,10.14
2023-04-11T05:03:48.733Z,10.26
2023-04-11T05:06:57.514Z,10.40
2023-04-11T05:10:04.145Z,10.53
2023-04-11T05:13:10.654Z,10.65
2023-04-11T05:16:17.843Z,10.79
2023-04-11T05:19:24.667Z,10.91
2023-04-11T05:22:29.823Z,11.02
2023-04-11T05:25:37.477Z,11.14
2023-04-11T05:28:46.630Z,11.27
2023-04-11T05:31:53.105Z,11.41
2023-04-11T05:35:09.678Z,11.58
2023-04-11T05:38:17.595Z,11.74
2023-04-11T05:41:24.878Z,11.91
2023-04-11T05:44:33.967Z,12.08
2023-04-11T05:47:41.767Z,12.24
2023-04-11T05:50:48.525Z,12.42
2023-04-11T05:53:54.784Z,12.56
2023-04-11T05:57:01.277Z,12.70
2023-04-11T06:00:08.944Z,12.87
2023-04-11T06:03:17.644Z,13.05
2023-04-11T06:06:24.074Z,13.24
2023-04-11T06:09:33.483Z,13.43
2023-04-11T06:12:39.516Z,13.60
2023-04-11T06:15:47.168Z,13.77
2023-04-11T06:18:52.751Z,13.90
2023-04-11T06:21:57.720Z,14.01
2023-04-11T06:25:02.820Z,14.08
2023-04-11T06:28:09.796Z,14.14
2023-04-11T06:31:15.875Z,14.21
2023-04-11T06:34:22.704Z,14.30
2023-04-11T06:37:29.778Z,14.35
2023-04-11T06:40:38.303Z,14.40
2023-04-11T06:43:47.354Z,14.35
2023-04-11T06:46:55.238Z,14.31
2023-04-11T06:50:04.596Z,14.33
2023-04-11T06:53:11.590Z,14.36
2023-04-11T06:56:18.945Z,14.34
2023-04-11T06:59:27.649Z,14.36
2023-04-11T07:02:35.086Z,14.36
2023-04-11T07:05:42.277Z,14.46
2023-04-11T07:08:50.778Z,14.59
2023-04-11T07:11:59.379Z,14.73
2023-04-11T07:15:06.384Z,14.82
2023-04-11T07:18:12.677Z,14.91
2023-04-11T07:21:18.514Z,14.98
2023-04-11T07:24:25.553Z,15.07
2023-04-11T07:27:31.080Z,15.15
2023-04-11T07:30:37.215Z,15.24
2023-04-11T07:33:45.275Z,15.27
2023-04-11T07:36:53.385Z,15.39
2023-04-11T07:39:59.444Z,15.52
2023-04-11T07:43:04.706Z,15.64
2023-04-11T07:46:10.644Z,15.75
2023-04-11T07:49:17.839Z,15.83
2023-04-11T07:52:23.349Z,15.83
2023-04-11T07:55:30.768Z,15.86
2023-04-11T07:58:38.359Z,15.87
2023-04-11T08:01:44.743Z,15.89
2023-04-11T08:04:51.598Z,15.97
2023-04-11T08:07:58.104Z,16.05
2023-04-11T08:11:04.083Z,16.16
2023-04-11T08:14:10.594Z,16.28
2023-04-11T08:17:27.629Z,16.38
2023-04-11T08:20:26.810Z,16.44
2023-04-11T08:23:32.698Z,16.50
2023-04-11T08:27:17.556Z,16.50
2023-04-11T08:30:27.739Z,16.55
2023-04-11T08:33:39.352Z,16.56
2023-04-11T08:36:45.062Z,16.50
2023-04-11T08:39:52.144Z,16.50
2023-04-11T08:43:01.611Z,16.50
2023-04-11T08:46:08.085Z,16.56
2023-04-11T08:49:13.722Z,16.65
2023-04-11T08:52:19.558Z,16.77
2023-04-11T08:55:25.670Z,16.90
2023-04-11T08:58:31.808Z,17.05
2023-04-11T09:01:48.036Z,17.17
2023-04-11T09:04:55.665Z,17.31
2023-04-11T09:08:06.242Z,17.45
2023-04-11T09:11:15.953Z,17.61
2023-04-11T09:14:27.246Z,17.81
2023-04-11T09:17:33.391Z,18.08
2023-04-11T09:20:40.548Z,18.33
2023-04-11T09:23:46.968Z,18.51
2023-04-11T09:26:54.338Z,18.71
2023-04-11T09:30:04.798Z,18.83
2023-04-11T09:33:10.933Z,18.77
2023-04-11T09:36:25.174Z,18.61
2023-04-11T09:39:35.206Z,18.46
2023-04-11T09:42:42.239Z,18.38
2023-04-11T09:46:00.493Z,18.36
2023-04-11T09:48:59.614Z,18.40
2023-04-11T09:52:10.373Z,18.42
2023-04-11T09:55:21.044Z,18.48
2023-04-11T09:58:27.640Z,18.60
2023-04-11T10:01:34.874Z,18.70
2023-04-11T10:04:41.024Z,18.78
2023-04-11T10:07:45.773Z,18.75
2023-04-11T10:10:50.435Z,18.76
2023-04-11T10:14:02.441Z,18.74
2023-04-11T10:17:32.622Z,18.88
2023-04-11T10:21:01.548Z,19.02
2023-04-11T10:24:32.555Z,19.20
2023-04-11T10:28:12.300Z,19.36
2023-04-11T10:31:25.660Z,19.50
2023-04-11T10:34:31.518Z,19.66
2023-04-11T10:37:48.838Z,19.74
2023-04-11T10:41:17.035Z,19.77
2023-04-11T10:44:31.786Z,19.70
2023-04-11T10:47:37.696Z,19.63
2023-04-11T10:50:49.048Z,19.52
2023-04-11T10:53:55.249Z,19.44
2023-04-11T10:57:10.612Z,19.27
2023-04-11T11:00:19.321Z,19.09
2023-04-11T11:03:42.905Z,18.94
2023-04-11T11:06:56.701Z,18.88
2023-04-11T11:10:04.024Z,18.83
2023-04-11T11:13:10.866Z,18.78
2023-04-11T11:16:16.949Z,18.75
2023-04-11T11:19:23.867Z,18.77
2023-04-11T11:22:33.799Z,18.79
2023-04-11T11:25:40.916Z,18.83
2023-04-11T11:28:49.388Z,18.90
2023-04-11T11:31:59.867Z,18.95
2023-04-11T11:35:05.669Z,18.95
2023-04-11T11:38:11.908Z,18.91
2023-04-11T11:41:18.148Z,18.95
2023-04-11T11:44:25.392Z,19.01
2023-04-11T11:47:33.727Z,19.03
2023-04-11T11:50:43.364Z,19.03
2023-04-11T11:53:51.201Z,19.09
2023-04-11T11:56:57.467Z,19.12
2023-04-11T12:00:15.932Z,19.19
2023-04-11T12:03:24.756Z,19.19
2023-04-11T12:06:31.444Z,19.14
2023-04-11T12:09:47.130Z,19.05
2023-04-11T12:12:56.574Z,18.90
2023-04-11T12:16:08.907Z,18.88
2023-04-11T12:19:16.453Z,18.83
2023-04-11T12:22:26.945Z,18.80
2023-04-11T12:25:36.281Z,18.80
2023-04-11T12:28:41.381Z,18.70
2023-04-11T12:31:49.690Z,18.63
2023-04-11T12:34:55.151Z,18.51
2023-04-11T12:38:01.394Z,18.45
2023-04-11T12:44:15.251Z,18.31
2023-04-11T12:44:22.841Z,18.38
2023-04-11T12:47:22.584Z,18.25
2023-04-11T12:50:31.486Z,18.24
2023-04-11T12:53:38.044Z,18.27
2023-04-11T12:56:43.881Z,18.28
2023-04-11T12:59:50.545Z,18.25
2023-04-11T13:02:57.602Z,18.20
2023-04-11T13:06:05.845Z,18.15
2023-04-11T13:09:13.979Z,18.10
2023-04-11T13:12:21.867Z,18.05
2023-04-11T13:15:28.019Z,18.00
2023-04-11T13:18:33.520Z,17.93
2023-04-11T13:21:40.070Z,17.87
2023-04-11T13:24:46.167Z,17.84
2023-04-11T13:27:52.736Z,17.83
2023-04-11T13:30:59.755Z,17.92
2023-04-11T13:34:06.763Z,17.98
2023-04-11T13:37:13.361Z,18.03
2023-04-11T13:40:23.349Z,18.12
2023-04-11T13:43:29.436Z,18.15
2023-04-11T13:46:34.951Z,18.17
2023-04-11T13:49:41.876Z,18.24
2023-04-11T13:52:47.658Z,18.36
2023-04-11T13:55:56.442Z,18.41
2023-04-11T13:59:04.005Z,18.42
2023-04-11T14:02:11.711Z,18.38
2023-04-11T14:05:19.229Z,18.32
2023-04-11T14:08:25.680Z,18.30
2023-04-11T14:11:24.014Z,18.23
2023-04-11T14:14:30.626Z,18.14
2023-04-11T14:17:36.637Z,18.07
2023-04-11T14:20:44.864Z,18.01
2023-04-11T14:23:50.453Z,17.92
2023-04-11T14:26:57.791Z,17.84
2023-04-11T14:30:04.315Z,17.75
2023-04-11T14:33:11.259Z,17.70
2023-04-11T14:36:18.315Z,17.59
2023-04-11T14:39:25.551Z,17.47
2023-04-11T14:42:32.793Z,17.36
2023-04-11T14:45:39.677Z,17.29
2023-04-11T14:48:46.845Z,17.22
2023-04-11T14:51:53.024Z,17.16
2023-04-11T14:54:59.952Z,17.12
2023-04-11T14:58:10.316Z,17.09
2023-04-11T15:01:15.914Z,17.07
2023-04-11T15:04:24.357Z,17.04
2023-04-11T15:07:30.924Z,16.99
2023-04-11T15:10:39.165Z,16.97
2023-04-11T15:13:45.882Z,16.93
2023-04-11T15:16:52.019Z,16.88
2023-04-11T15:19:57.242Z,16.83
2023-04-11T15:23:03.792Z,16.78
2023-04-11T15:26:11.175Z,16.74
2023-04-11T15:29:17.578Z,16.67
2023-04-11T15:32:22.217Z,16.62
2023-04-11T15:35:27.981Z,16.55
2023-04-11T15:38:34.016Z,16.49
2023-04-11T15:41:40.376Z,16.42
2023-04-11T15:44:45.631Z,16.37
2023-04-11T15:47:51.570Z,16.31
2023-04-11T15:50:57.670Z,16.25
2023-04-11T15:54:04.699Z,16.17
2023-04-11T15:57:10.489Z,16.06
2023-04-11T16:00:19.262Z,15.97
2023-04-11T16:03:27.119Z,15.89
2023-04-11T16:06:34.596Z,15.81
2023-04-11T16:09:42.454Z,15.76
2023-04-11T16:12:52.367Z,15.69
2023-04-11T16:16:00.013Z,15.64
2023-04-11T16:19:05.965Z,15.58
2023-04-11T16:22:13.037Z,15.53
2023-04-11T16:25:23.295Z,15.47
2023-04-11T16:28:29.867Z,15.40
2023-04-11T16:31:35.923Z,15.35
2023-04-11T16:34:42.490Z,15.31
2023-04-11T16:37:48.641Z,15.26
2023-04-11T16:40:55.848Z,15.21
2023-04-11T16:44:03.856Z,15.16
2023-04-11T16:47:11.095Z,15.10
2023-04-11T16:50:17.299Z,15.05
2023-04-11T16:53:24.911Z,14.99
2023-04-11T16:56:31.336Z,14.95
2023-04-11T16:59:39.438Z,14.90
2023-04-11T17:02:44.535Z,14.84
2023-04-11T17:05:53.413Z,14.79
2023-04-11T17:09:00.552Z,14.69
2023-04-11T17:12:06.598Z,14.57
2023-04-11T17:15:15.551Z,14.43
2023-04-11T17:18:21.205Z,14.35
2023-04-11T17:21:28.124Z,14.25
2023-04-11T17:24:34.668Z,14.17
2023-04-11T17:27:40.373Z,14.13
2023-04-11T17:30:45.827Z,14.08
2023-04-11T17:33:52.764Z,14.03
2023-04-11T17:36:58.054Z,14.00
2023-04-11T17:40:04.180Z,13.98
2023-04-11T17:43:10.189Z,13.95
2023-04-11T17:46:17.057Z,13.91
2023-04-11T17:49:24.353Z,13.89
2023-04-11T17:52:31.796Z,13.86
2023-04-11T17:55:38.068Z,13.83
2023-04-11T17:58:46.356Z,13.77
2023-04-11T18:01:54.172Z,13.70
2023-04-11T18:05:05.618Z,13.62
2023-04-11T18:08:11.459Z,13.54
2023-04-11T18:11:18.439Z,13.50
2023-04-11T18:14:26.232Z,13.46
2023-04-11T18:17:33.947Z,13.45
2023-04-11T18:20:40.569Z,13.43
2023-04-11T18:23:48.424Z,13.42
2023-04-11T18:26:56.880Z,13.40
2023-04-11T18:30:02.744Z,13.39
2023-04-11T18:33:08.924Z,13.34
2023-04-11T18:36:16.184Z,13.32
2023-04-11T18:39:24.135Z,13.30
2023-04-11T18:42:29.585Z,13.27
2023-04-11T18:45:39.416Z,13.28
2023-04-11T18:48:46.124Z,13.25
2023-04-11T18:51:53.244Z,13.24
2023-04-11T18:54:59.523Z,13.24
2023-04-11T18:58:09.197Z,13.21
2023-04-11T19:01:17.840Z,13.20
2023-04-11T19:04:24.943Z,13.18
2023-04-11T19:07:32.422Z,13.16
2023-04-11T19:10:39.708Z,13.14
2023-04-11T19:13:49.289Z,13.13
2023-04-11T19:16:55.856Z,13.11
2023-04-11T19:20:03.825Z,13.09
2023-04-11T19:23:12.027Z,13.07
2023-04-11T19:26:20.197Z,13.08
2023-04-11T19:29:27.129Z,13.08
2023-04-11T19:32:34.045Z,13.07
2023-04-11T19:35:42.794Z,13.08
2023-04-11T19:38:49.161Z,13.10
2023-04-11T19:41:59.486Z,13.12
2023-04-11T19:45:05.555Z,13.14
2023-04-11T19:48:12.498Z,13.18
2023-04-11T19:51:20.325Z,13.21
2023-04-11T19:54:26.559Z,13.24
2023-04-11T19:57:33.742Z,13.27
2023-04-11T20:00:42.025Z,13.30
2023-04-11T20:03:49.882Z,13.33
2023-04-11T20:06:57.910Z,13.36
2023-04-11T20:10:04.231Z,13.40
2023-04-11T20:13:11.549Z,13.42
2023-04-11T20:16:18.314Z,13.45
2023-04-11T20:19:25.100Z,13.47
2023-04-11T20:22:32.502Z,13.48
2023-04-11T20:25:38.486Z,13.50
2023-04-11T20:28:44.884Z,13.50
2023-04-11T20:31:49.494Z,13.51
2023-04-11T20:34:55.544Z,13.54
2023-04-11T20:38:02.826Z,13.56
2023-04-11T20:41:11.052Z,13.56
2023-04-11T20:44:16.186Z,13.58
2023-04-11T20:47:22.291Z,13.58
2023-04-11T20:50:29.590Z,13.57
2023-04-11T20:53:35.693Z,13.56
2023-04-11T20:56:43.245Z,13.55
2023-04-11T20:59:49.605Z,13.52
2023-04-11T21:02:58.223Z,13.51
2023-04-11T21:06:04.709Z,13.51
2023-04-11T21:09:12.466Z,13.52
2023-04-11T21:12:18.572Z,13.53
2023-04-11T21:15:26.230Z,13.52
2023-04-11T21:18:32.144Z,13.53
2023-04-11T21:21:40.848Z,13.53
2023-04-11T21:24:48.875Z,13.51
2023-04-11T21:27:56.842Z,13.51
2023-04-11T21:31:02.933Z,13.52
2023-04-11T21:34:09.568Z,13.52
2023-04-11T21:37:14.549Z,13.52
2023-04-11T21:40:22.188Z,13.52
2023-04-11T21:43:28.098Z,13.53
2023-04-11T21:46:33.572Z,13.53
2023-04-11T21:49:41.461Z,13.54
2023-04-11T21:52:47.152Z,13.56
2023-04-11T21:56:01.502Z,13.57
2023-04-11T21:59:10.382Z,13.58
2023-04-11T22:02:17.870Z,13.60
2023-04-11T22:05:24.033Z,13.60
2023-04-11T22:08:33.176Z,13.61
2023-04-11T22:11:40.342Z,13.62
2023-04-11T22:14:46.935Z,13.64
2023-04-11T22:17:55.741Z,13.65
2023-04-11T22:21:01.995Z,13.66
2023-04-11T22:24:11.419Z,13.67
2023-04-11T22:27:17.232Z,13.69
2023-04-11T22:30:24.057Z,13.69
2023-04-11T22:33:29.529Z,13.67
2023-04-11T22:36:38.480Z,13.68
2023-04-11T22:39:45.519Z,13.68
2023-04-11T22:42:53.518Z,13.67
2023-04-11T22:45:59.966Z,13.65
2023-04-11T22:49:06.501Z,13.60
2023-04-11T22:52:12.787Z,13.56
2023-04-11T22:55:22.077Z,13.52
2023-04-11T22:58:27.828Z,13.48
2023-04-11T23:01:35.082Z,13.46
2023-04-11T23:04:41.080Z,13.43
2023-04-11T23:07:47.287Z,13.42
2023-04-11T23:10:54.265Z,13.41
2023-04-11T23:14:01.390Z,13.37
2023-04-11T23:17:07.377Z,13.35
2023-04-11T23:20:15.998Z,13.32
2023-04-11T23:23:22.192Z,13.29
2023-04-11T23:26:34.889Z,13.27
2023-04-11T23:29:39.229Z,13.25
2023-04-11T23:32:45.560Z,13.23
2023-04-11T23:35:51.154Z,13.20
2023-04-11T23:38:57.397Z,13.19
2023-04-11T23:42:03.685Z,13.16
2023-04-11T23:45:10.127Z,13.14
2023-04-11T23:48:15.588Z,13.10
2023-04-11T23:51:22.719Z,13.05
2023-04-11T23:54:30.170Z,12.99
2023-04-11T23:57:38.878Z,12.96
